Flight Track Log - Related Links

Times and Time Zones

All times are in EDT time to prevent confusion due to time zone crossing. See the ACA620 flight status page for this flight to view local times or setup timezone preferences in your user account.

Time Position Orientation Groundspeed Altitude Reporting Facility
EDT Latitude Longitude Course Direction KTS MPH feet Rate Location/Type
Sat 07:28:17 PM 43.6630 -79.6210 90° East 163 188 800  Level FlightAware ADS-B
Sat 07:28:47 PM 43.6460 -79.6410 220° Southwest 170 196 2,300 3,100 Climbing FlightAware ADS-B
Sat 07:29:17 PM 43.6260 -79.6580 212° Southwest 179 206 3,900 2,727 Climbing FlightAware ADS-B
Sat 07:29:42 PM 43.6010 -79.6490 165° South 247 284 4,800 2,400 Climbing FlightAware ADS-B
Sat 07:29:57 PM 43.5890 -79.6310 133° Southeast 272 313 5,500 2,600 Climbing FlightAware ADS-B
Sat 07:30:12 PM 43.5820 -79.6050 110° East 285 328 6,100 1,800 Climbing FlightAware ADS-B
Sat 07:30:27 PM 43.5790 -79.5800 99° East 294 338 6,400 750 Climbing FlightAware ADS-B
Sat 07:30:52 PM 43.5850 -79.5320 80° East 292 336 6,600 327 Climbing FlightAware ADS-B
Sat 07:31:22 PM 43.5920 -79.4790 80° East 286 329 6,700 873 Climbing FlightAware ADS-B
Sat 07:31:47 PM 43.5980 -79.4340 80° East 294 338 7,400 3,164 Climbing FlightAware ADS-B
Sat 07:32:17 PM 43.6060 -79.3780 79° East 294 338 9,600 2,914 Climbing FlightAware ADS-B
Sat 07:32:57 PM 43.6170 -79.2960 79° East 359 413 10,800 2,625 Climbing FlightAware ADS-B
Sat 07:33:37 PM 43.6370 -79.2040 73° East 384 442 13,100 3,106 Climbing FlightAware ADS-B
Sat 07:34:22 PM 43.6650 -79.0960 70° East 416 479 15,200 3,133 Climbing FlightAware ADS-B
Sat 07:35:07 PM 43.6950 -78.9790 70° East 433 498 17,800 3,318 Climbing FlightAware ADS-B
Sat 07:35:47 PM 43.7220 -78.8750 70° East 442 509 19,900 3,000 Climbing FlightAware ADS-B
Sat 07:36:27 PM 43.7480 -78.7750 70° East 451 519 21,800 2,753 Climbing FlightAware ADS-B
Sat 07:37:12 PM 43.7810 -78.6440 71° East 472 543 23,800 2,329 Climbing FlightAware ADS-B
Sat 07:37:52 PM 43.8100 -78.5270 71° East 492 566 25,100 1,800 Climbing FlightAware ADS-B
Sat 07:38:32 PM 43.8390 -78.4090 71° East 516 594 26,200 1,624 Climbing FlightAware ADS-B
Sat 07:39:17 PM 43.8750 -78.2650 71° East 537 618 27,400 1,906 Climbing FlightAware ADS-B
Sat 07:39:57 PM 43.9080 -78.1340 71° East 544 626 28,900 2,250 Climbing FlightAware ADS-B
Sat 07:40:37 PM 43.9400 -78.0020 71° East 546 628 30,400 1,482 Climbing FlightAware ADS-B
Sat 07:41:22 PM 43.9770 -77.8510 71° East 549 632 31,000 400 Climbing FlightAware ADS-B
Sat 07:42:07 PM 44.0130 -77.7020 71° East 542 624 31,000  Level FlightAware ADS-B
Sat 07:42:47 PM 44.0450 -77.5720 71° East 539 620 31,000  Level FlightAware ADS-B
Sat 07:43:27 PM 44.0770 -77.4420 71° East 539 620 31,000  Level FlightAware ADS-B
Sat 07:44:12 PM 44.1220 -77.2970 67° East 534 615 31,000  Level FlightAware ADS-B
Sat 07:44:52 PM 44.1600 -77.1820 65° Northeast 528 608 31,000  Level FlightAware ADS-B
Sat 07:45:32 PM 44.2030 -77.0530 65° Northeast 525 604 31,000  Level FlightAware ADS-B
Sat 07:46:17 PM 44.2490 -76.9130 65° Northeast 525 604 31,000  Level FlightAware ADS-B
Sat 07:46:57 PM 44.2880 -76.7920 66° East 525 604 31,000  Level FlightAware ADS-B
Sat 07:47:42 PM 44.3350 -76.6470 66° East 522 601 31,000  Level FlightAware ADS-B
Sat 07:48:22 PM 44.3740 -76.5240 66° East 525 604 31,000  Level FlightAware ADS-B
Sat 07:49:07 PM 44.4190 -76.3840 66° East 527 606 31,000  Level FlightAware ADS-B
Sat 07:49:47 PM 44.4580 -76.2620 66° East 527 606 31,000  Level FlightAware ADS-B
Sat 07:50:27 PM 44.4980 -76.1360 66° East 530 610 31,000  Level FlightAware ADS-B
Sat 07:51:12 PM 44.5430 -75.9920 66° East 534 615 31,000  Level FlightAware ADS-B
Sat 07:51:52 PM 44.5820 -75.8650 67° East 531 611 31,000  Level FlightAware ADS-B
Sat 07:52:37 PM 44.6260 -75.7240 66° East 535 616 31,000  Level FlightAware ADS-B
Sat 07:53:12 PM 44.6590 -75.6190 66° East 538 619 31,000  Level FlightAware ADS-B
Sat 07:53:57 PM 44.7030 -75.4560 69° East 543 625 31,000  Level FlightAware ADS-B
Sat 07:54:42 PM 44.7430 -75.3050 70° East 546 628 31,000  Level FlightAware ADS-B
Sat 07:55:22 PM 44.7770 -75.1760 70° East 543 625 31,000  Level FlightAware ADS-B
Sat 07:56:02 PM 44.8130 -75.0420 69° East 543 625 31,000  Level FlightAware ADS-B
Sat 07:56:42 PM 44.8470 -74.9160 69° East 543 625 31,000  Level FlightAware ADS-B
Sat 07:57:27 PM 44.8880 -74.7630 69° East 543 625 31,000  Level FlightAware ADS-B
Sat 07:58:07 PM 44.9220 -74.6340 70° East 544 626 31,000  Level FlightAware ADS-B
Sat 07:58:52 PM 44.9610 -74.4830 70° East 547 629 31,000  Level FlightAware ADS-B
Sat 07:59:32 PM 44.9950 -74.3470 70° East 547 629 31,000  Level FlightAware ADS-B
Sat 08:00:17 PM 45.0250 -74.1970 74° East 547 629 31,000  Level FlightAware ADS-B
Sat 08:00:57 PM 45.0510 -74.0520 76° East 551 634 31,000  Level FlightAware ADS-B
Sat 08:01:42 PM 45.0800 -73.8910 76° East 554 638 31,000  Level FlightAware ADS-B
Sat 08:02:22 PM 45.1050 -73.7500 76° East 558 642 31,000  Level FlightAware ADS-B
Sat 08:02:57 PM 45.1260 -73.6300 76° East 559 643 31,000  Level FlightAware ADS-B
Sat 08:03:32 PM 45.1480 -73.5030 76° East 560 644 31,000  Level FlightAware ADS-B
Sat 08:04:12 PM 45.1720 -73.3620 76° East 561 646 31,000  Level FlightAware ADS-B
Sat 08:04:57 PM 45.1990 -73.2020 76° East 563 648 31,000  Level FlightAware ADS-B
Sat 08:05:37 PM 45.2240 -73.0580 76° East 565 650 31,000  Level FlightAware ADS-B
Sat 08:06:22 PM 45.2520 -72.8920 76° East 569 655 31,000  Level FlightAware ADS-B
Sat 08:06:57 PM 45.2720 -72.7700 77° East 572 658 31,000  Level FlightAware ADS-B
Sat 08:07:37 PM 45.2940 -72.6280 78° East 570 656 31,000  Level FlightAware ADS-B
Sat 08:08:17 PM 45.3060 -72.4770 84° East 564 649 31,000  Level FlightAware ADS-B
Sat 08:09:02 PM 45.3160 -72.3090 85° East 562 647 31,000  Level FlightAware ADS-B
Sat 08:09:42 PM 45.3230 -72.1610 86° East 561 646 31,000  Level FlightAware ADS-B
Sat 08:10:22 PM 45.3300 -72.0340 85° East 558 642 31,000  Level FlightAware ADS-B
Sat 08:10:52 PM 45.3360 -71.9200 86° East 557 641 31,000  Level FlightAware ADS-B
Sat 08:11:37 PM 45.3440 -71.7540 86° East 552 635 31,000  Level FlightAware ADS-B
Sat 08:12:12 PM 45.3500 -71.6240 86° East 551 634 31,000  Level FlightAware ADS-B
Sat 08:12:48 PM 45.3531 -71.4950 86° East 544 626 31,000  Level Boston Center
Sat 08:13:18 PM 45.3500 -71.3667 92° East 550 633 31,000  Level Montreal Center
Sat 08:14:18 PM 45.3667 -71.1500 84° East 550 633 31,000  Level Montreal Center
Sat 08:15:18 PM 45.3500 -70.9333 96° East 550 633 31,000  Level Montreal Center
Sat 08:15:48 PM 45.3650 -70.8656 72° East 549 632 31,000  Level Boston Center
Sat 08:16:48 PM 45.3558 -70.6503 93° East 549 632 31,000  Level Boston Center
Sat 08:17:48 PM 45.3439 -70.4350 94° East 549 632 31,000  Level Boston Center
Sat 08:18:48 PM 45.3294 -70.2200 95° East 554 638 31,000  Level Boston Center
Sat 08:19:48 PM 45.3189 -70.0050 94° East 554 638 31,000  Level Boston Center
Sat 08:21:00 PM 45.3058 -69.7872 95° East 554 638 31,000  Level Boston Center
Sat 08:22:00 PM 45.2914 -69.5311 94° East 554 638 31,000  Level Boston Center
Sat 08:27:27 PM 45.2100 -68.3470 94° East 528 608 31,000  Level FlightAware ADS-B
Sat 08:28:07 PM 45.2000 -68.2120 96° East 526 605 31,000  Level FlightAware ADS-B
Sat 08:28:47 PM 45.1890 -68.0720 96° East 528 608 31,000  Level FlightAware ADS-B
Sat 08:29:17 PM 45.1810 -67.9690 96° East 530 610 31,000  Level FlightAware ADS-B
Sat 08:30:02 PM 45.1690 -67.8170 96° East 531 611 31,000  Level FlightAware ADS-B
Sat 08:30:42 PM 45.1580 -67.6740 96° East 532 612 31,000  Level FlightAware ADS-B
Sat 08:31:22 PM 45.1480 -67.5430 96° East 532 612 31,000  Level FlightAware ADS-B
Sat 08:32:17 PM 45.1330 -67.3580 96° East 531 611 31,000  Level FlightAware ADS-B
Sat 08:33:02 PM 45.1200 -67.2000 97° East 530 610 31,000  Level FlightAware ADS-B
Sat 08:33:42 PM 45.1080 -67.0600 97° East 528 608 31,000  Level FlightAware ADS-B
Sat 08:34:27 PM 45.0940 -66.9090 97° East 526 605 31,000  Level FlightAware ADS-B
Sat 08:35:07 PM 45.0820 -66.7710 97° East 523 602 31,000  Level FlightAware ADS-B
Sat 08:35:52 PM 45.0690 -66.6200 97° East 522 601 31,000  Level FlightAware ADS-B
Sat 08:36:32 PM 45.0570 -66.4830 97° East 520 598 31,000  Level FlightAware ADS-B
Sat 08:37:12 PM 45.0440 -66.3470 98° East 518 596 31,000  Level FlightAware ADS-B
Sat 08:37:57 PM 45.0300 -66.1990 98° East 517 595 31,000  Level FlightAware ADS-B
Sat 08:38:37 PM 45.0180 -66.0640 97° East 515 593 31,000 -71 Level FlightAware ADS-B
Sat 08:39:22 PM 45.0040 -65.9140 97° East 511 588 30,900 -1,059 Descending FlightAware ADS-B
Sat 08:40:02 PM 44.9910 -65.7840 98° East 512 589 29,500 -1,875 Descending FlightAware ADS-B
Sat 08:40:42 PM 44.9780 -65.6530 98° East 495 570 28,400 -1,835 Descending FlightAware ADS-B
Sat 08:41:27 PM 44.9650 -65.5120 97° East 485 558 26,900 -2,118 Descending FlightAware ADS-B
Sat 08:42:07 PM 44.9520 -65.3850 98° East 481 554 25,400 -2,100 Descending FlightAware ADS-B
Sat 08:42:47 PM 44.9390 -65.2640 99° East 472 543 24,100 -2,118 Descending FlightAware ADS-B
Sat 08:43:32 PM 44.9260 -65.1250 97° East 475 547 22,400 -2,188 Descending FlightAware ADS-B
Sat 08:44:12 PM 44.9230 -64.9990 92° East 478 550 21,000 -1,976 Descending FlightAware ADS-B
Sat 08:44:57 PM 44.9240 -64.8630 89° East 464 534 19,600 -1,694 Descending FlightAware ADS-B
Sat 08:45:37 PM 44.9250 -64.7480 89° East 446 513 18,600 -1,800 Descending FlightAware ADS-B
Sat 08:46:17 PM 44.9260 -64.6290 89° East 436 502 17,200 -1,976 Descending FlightAware ADS-B
Sat 08:47:02 PM 44.9270 -64.5020 89° East 424 488 15,800 -2,025 Descending FlightAware ADS-B
Sat 08:47:37 PM 44.9270 -64.4120 90° East 425 489 14,500 -1,976 Descending FlightAware ADS-B
Sat 08:48:27 PM 44.9270 -64.2880 90° East 420 483 13,000 -1,500 Descending FlightAware ADS-B
Sat 08:49:17 PM 44.9270 -64.1500 90° East 408 470 12,000 -2,021 Descending FlightAware ADS-B
Sat 08:50:02 PM 44.9280 -64.0230 89° East 400 460 9,800 -1,886 Descending FlightAware ADS-B
Sat 08:50:27 PM 44.9280 -63.9610 90° East 400 460 9,800 -1,100 Level FlightAware ADS-B
Sat 08:51:02 PM 44.9350 -63.8720 84° East 364 419 8,700 -1,200 Descending FlightAware ADS-B
Sat 08:51:22 PM 44.9370 -63.8250 87° East 343 395 8,700 -514 Level FlightAware ADS-B
Sat 08:52:12 PM 44.9500 -63.7230 80° East 334 384 8,100 -857 Descending FlightAware ADS-B
Sat 08:52:32 PM 44.9580 -63.6770 76° East 327 376 7,700 -982 Descending FlightAware ADS-B
Sat 08:53:07 PM 44.9680 -63.6120 78° East 311 358 7,200 -565 Descending FlightAware ADS-B
Sat 08:53:57 PM 44.9920 -63.5200 70° East 303 349 6,900 -1,200 Descending FlightAware ADS-B
Sat 08:54:27 PM 45.0167 -63.5000 70° East 300 345 5,600 -1,667 Descending Moncton Center
Sat 08:55:27 PM 45.0833 -63.4000 47° Northeast 280 322 4,400 -1,000 Descending Moncton Center
Sat 08:56:27 PM 45.0500 -63.3333 125° Southeast 220 253 3,600 -500 Descending Moncton Center
Sat 08:57:27 PM 45.0167 -63.3500 199° South 180 207 3,400 -400 Descending Moncton Center
Sat 08:58:27 PM 44.9667 -63.4000 215° Southwest 160 184 2,800 -700 Descending Moncton Center
Sat 08:59:27 PM 44.9333 -63.4333 215° Southwest 150 173 2,000 -800 Descending Moncton Center

Login

Don't have an account? Register now (free) for customized features, flight alerts, and more!